Time;durP1;ratioP1;P1;durP2;ratioP2;P2;SDS_P1;SDS_P2;PMS_P1;PMS_P2;Temp;Humidity;BMP_temperature;BMP_pressure;BME280_temperature;BME280_humidity;BME280_pressure;Samples;Min_cycle;Max_cycle;Signal;HPM_P1;HPM_P2
2023/01/19 00:00:19;;;;;;;;;;;;;;;19.92;38.84;100314.41;7262609;19;154208;-59
2023/01/19 00:02:46;;;;;;;;;;;;;;;19.93;38.57;100313.25;7260767;19;153343;-60
2023/01/19 00:05:14;;;;;;;;;;;;;;;19.94;38.62;100314.88;7259105;19;153451;-63
2023/01/19 00:07:40;;;;;;;;;;;;;;;19.95;38.89;100312.91;7255945;19;153352;-61
2023/01/19 00:10:08;;;;;;;;;;;;;;;19.97;39.01;100316.25;7265096;19;154048;-60
2023/01/19 00:12:35;;;;;;;;;;;;;;;19.94;38.85;100312.09;7255826;19;153261;-61
2023/01/19 00:15:02;;;;;;;;;;;;;;;19.98;38.77;100310.31;7260504;19;153836;-60
2023/01/19 00:17:29;;;;;;;;;;;;;;;19.98;38.53;100307.53;7258512;19;155061;-60
2023/01/19 00:19:56;;;;;;;;;;;;;;;19.98;38.75;100315.09;7261140;19;154790;-60
2023/01/19 00:22:23;;;;;;;;;;;;;;;19.97;38.38;100319.88;7260856;19;155813;-60
2023/01/19 00:24:49;;;;;;;;;;;;;;;19.98;38.42;100315.94;7235902;19;154319;-60
2023/01/19 00:27:16;;;;;;;;;;;;;;;19.97;38.37;100310.63;7255622;19;153433;-60
2023/01/19 00:29:43;;;;;;;;;;;;;;;19.99;38.37;100314.75;7265032;19;153626;-61
2023/01/19 00:32:10;;;;;;;;;;;;;;;19.97;38.43;100310.63;7253020;19;154359;-60
2023/01/19 00:34:38;;;;;;;;;;;;;;;19.97;38.73;100319.03;7261222;19;154092;-63
2023/01/19 00:37:05;;;;;;;;;;;;;;;19.94;38.70;100314.09;7258895;19;153656;-58
2023/01/19 00:39:32;;;;;;;;;;;;;;;19.94;38.73;100316.88;7259290;19;153775;-59
2023/01/19 00:44:36;;;;;;;;;;;;;;;19.88;39.20;100324.59;7259429;19;153469;-59
2023/01/19 00:47:04;;;;;;;;;;;;;;;19.85;39.34;100319.59;7260128;19;154302;-59
2023/01/19 00:49:31;;;;;;;;;;;;;;;19.81;39.14;100317.75;7260181;19;153961;-59
2023/01/19 00:51:58;;;;;;;;;;;;;;;19.77;39.14;100311.13;7266910;19;155432;-59
2023/01/19 00:54:25;;;;;;;;;;;;;;;19.76;39.17;100317.91;7257629;19;153865;-60
2023/01/19 00:56:53;;;;;;;;;;;;;;;19.72;39.41;100314.91;7256846;19;154123;-60
2023/01/19 00:59:19;;;;;;;;;;;;;;;19.70;39.33;100313.56;7258763;19;154200;-59
2023/01/19 01:01:46;;;;;;;;;;;;;;;19.67;39.30;100315.03;7257782;19;155560;-65
2023/01/19 01:04:13;;;;;;;;;;;;;;;19.62;39.39;100317.97;7259038;19;153764;-60
2023/01/19 01:06:41;;;;;;;;;;;;;;;19.61;39.32;100313.50;7254975;19;154024;-60
2023/01/19 01:09:10;;;;;;;;;;;;;;;19.58;39.67;100319.72;7255014;19;154544;-59
2023/01/19 01:11:38;;;;;;;;;;;;;;;19.54;39.54;100327.94;7254225;19;153686;-60
2023/01/19 01:14:06;;;;;;;;;;;;;;;19.52;39.67;100329.41;7266865;19;153648;-59
2023/01/19 01:16:33;;;;;;;;;;;;;;;19.47;39.82;100321.97;7258594;19;153967;-60
2023/01/19 01:19:00;;;;;;;;;;;;;;;19.46;40.04;100331.50;7267636;19;153897;-59
2023/01/19 01:21:27;;;;;;;;;;;;;;;19.41;39.76;100328.78;7263310;19;153942;-59
2023/01/19 01:23:54;;;;;;;;;;;;;;;19.39;40.22;100333.06;7263172;19;153896;-59
2023/01/19 01:26:21;;;;;;;;;;;;;;;19.36;40.29;100333.69;7264855;19;153468;-59
2023/01/19 01:28:48;;;;;;;;;;;;;;;19.32;40.02;100339.09;7265758;19;153679;-60
2023/01/19 01:31:14;;;;;;;;;;;;;;;19.28;40.11;100332.47;7259505;19;153931;-59
2023/01/19 01:33:41;;;;;;;;;;;;;;;19.25;40.56;100329.47;7262074;19;154575;-62
2023/01/19 01:36:10;;;;;;;;;;;;;;;19.21;40.55;100328.44;7270764;19;154079;-59
2023/01/19 01:38:38;;;;;;;;;;;;;;;19.18;40.81;100334.66;7265913;19;153702;-61
2023/01/19 01:41:05;;;;;;;;;;;;;;;19.13;40.56;100330.00;7263700;19;153193;-59
2023/01/19 01:43:42;;;;;;;;;;;;;;;19.12;40.60;100339.56;7240042;19;154340;-60
2023/01/19 01:46:10;;;;;;;;;;;;;;;19.10;40.88;100342.66;7265947;19;153877;-59
2023/01/19 01:48:38;;;;;;;;;;;;;;;19.12;40.66;100341.53;7264548;19;154224;-64
2023/01/19 01:53:46;;;;;;;;;;;;;;;19.05;40.90;100341.94;7263683;19;153342;-60
2023/01/19 01:56:16;;;;;;;;;;;;;;;19.01;40.69;100332.50;7261010;19;154408;-60
2023/01/19 01:58:43;;;;;;;;;;;;;;;19.00;40.47;100336.44;7272480;19;154860;-60
2023/01/19 02:03:47;;;;;;;;;;;;;;;18.95;40.59;100334.59;7264459;19;155099;-59
2023/01/19 02:06:14;;;;;;;;;;;;;;;18.95;40.47;100331.78;7264542;19;152861;-60
2023/01/19 02:13:57;;;;;;;;;;;;;;;18.86;40.80;100335.63;7263649;19;153672;-63
2023/01/19 02:16:24;;;;;;;;;;;;;;;18.86;40.55;100341.22;7247013;19;154205;-59
2023/01/19 02:18:51;;;;;;;;;;;;;;;18.82;40.38;100341.03;7283038;19;152903;-59
2023/01/19 02:21:19;;;;;;;;;;;;;;;18.76;40.36;100341.47;7293147;19;152184;-60
2023/01/19 02:23:48;;;;;;;;;;;;;;;18.74;40.39;100344.56;7285049;19;154448;-59
2023/01/19 02:26:18;;;;;;;;;;;;;;;18.71;40.77;100345.19;7286229;19;152626;-59
2023/01/19 02:28:49;;;;;;;;;;;;;;;18.65;40.59;100347.25;7283124;19;153777;-59
2023/01/19 02:31:16;;;;;;;;;;;;;;;18.67;40.65;100355.31;7282582;19;153247;-60
2023/01/19 02:33:43;;;;;;;;;;;;;;;18.63;40.62;100348.69;7281936;19;152846;-59
2023/01/19 02:36:12;;;;;;;;;;;;;;;18.58;40.97;100343.19;7285945;19;152855;-59
2023/01/19 02:38:40;;;;;;;;;;;;;;;18.59;40.75;100342.91;7281983;19;152240;-59
2023/01/19 02:41:10;;;;;;;;;;;;;;;18.53;40.89;100352.53;7292796;19;151964;-58
2023/01/19 02:43:38;;;;;;;;;;;;;;;18.53;40.66;100348.91;7282247;19;154314;-59
2023/01/19 02:46:05;;;;;;;;;;;;;;;18.49;40.78;100339.44;7281161;19;151815;-58
2023/01/19 02:48:31;;;;;;;;;;;;;;;18.46;41.08;100342.84;7282336;19;153250;-58
2023/01/19 02:51:03;;;;;;;;;;;;;;;18.47;41.15;100347.31;7286011;19;153344;-59
2023/01/19 02:53:30;;;;;;;;;;;;;;;18.41;41.25;100349.38;7282708;19;153276;-62
2023/01/19 02:56:05;;;;;;;;;;;;;;;18.38;41.38;100346.38;7284060;19;152676;-60
2023/01/19 02:58:39;;;;;;;;;;;;;;;18.34;41.29;100343.38;7284869;19;154367;-59
2023/01/19 03:01:15;;;;;;;;;;;;;;;18.32;41.57;100348.44;7283837;19;152190;-65
2023/01/19 03:03:54;;;;;;;;;;;;;;;18.32;41.49;100344.81;7292585;19;152743;-59
2023/01/19 03:06:22;;;;;;;;;;;;;;;18.28;41.75;100352.16;7283026;19;151969;-59
2023/01/19 03:08:54;;;;;;;;;;;;;;;18.22;41.60;100346.66;7282721;19;153335;-59
2023/01/19 03:11:23;;;;;;;;;;;;;;;18.22;41.51;100351.41;7273971;19;155174;-61
2023/01/19 03:13:53;;;;;;;;;;;;;;;18.20;41.72;100357.31;7284519;19;153593;-59
2023/01/19 03:16:26;;;;;;;;;;;;;;;18.15;41.73;100359.38;7265330;19;155002;-59
2023/01/19 03:18:57;;;;;;;;;;;;;;;18.13;41.92;100359.69;7277387;19;153296;-59
2023/01/19 03:21:25;;;;;;;;;;;;;;;18.13;41.75;100365.25;7281881;19;152318;-59
2023/01/19 03:23:54;;;;;;;;;;;;;;;18.13;41.68;100365.25;7282707;19;154896;-59
2023/01/19 03:26:24;;;;;;;;;;;;;;;18.06;41.88;100361.22;7286487;19;154067;-60
2023/01/19 03:28:51;;;;;;;;;;;;;;;18.04;41.75;100372.69;7280745;19;153115;-59
2023/01/19 03:31:21;;;;;;;;;;;;;;;17.99;42.00;100369.97;7266074;19;154191;-58
2023/01/19 03:33:52;;;;;;;;;;;;;;;17.98;42.01;100359.13;7274359;19;152412;-58
2023/01/19 03:36:23;;;;;;;;;;;;;;;17.94;41.79;100367.28;7277988;19;152731;-59
2023/01/19 03:38:51;;;;;;;;;;;;;;;17.91;41.89;100364.25;7280975;19;152789;-59
2023/01/19 03:41:20;;;;;;;;;;;;;;;17.84;42.19;100370.25;7279913;19;153887;-59
2023/01/19 03:43:48;;;;;;;;;;;;;;;17.82;42.14;100363.28;7282864;19;153478;-59
2023/01/19 03:46:17;;;;;;;;;;;;;;;17.82;41.96;100358.53;7282810;19;154253;-59
2023/01/19 03:48:45;;;;;;;;;;;;;;;17.80;42.12;100357.19;7287246;19;152810;-59
2023/01/19 03:51:13;;;;;;;;;;;;;;;17.77;42.14;100367.00;7282204;19;153700;-60
2023/01/19 03:53:40;;;;;;;;;;;;;;;17.74;42.29;100368.44;7283911;19;151843;-61
2023/01/19 03:56:15;;;;;;;;;;;;;;;17.74;41.88;100374.03;7281375;19;154472;-60
2023/01/19 03:58:42;;;;;;;;;;;;;;;17.70;42.05;100369.38;7280375;19;154156;-60
2023/01/19 04:01:09;;;;;;;;;;;;;;;17.67;42.06;100367.19;7264017;19;152901;-62
2023/01/19 04:03:36;;;;;;;;;;;;;;;17.67;42.22;100372.78;7278629;19;154229;-60
2023/01/19 04:06:03;;;;;;;;;;;;;;;17.62;42.17;100370.06;7279550;19;153391;-59
2023/01/19 04:08:31;;;;;;;;;;;;;;;17.64;42.24;100368.59;7281197;19;152905;-60
2023/01/19 04:10:58;;;;;;;;;;;;;;;17.61;41.92;100368.38;7286481;19;153404;-59
2023/01/19 04:13:27;;;;;;;;;;;;;;;17.58;41.92;100369.81;7282695;19;151824;-60
2023/01/19 04:15:54;;;;;;;;;;;;;;;17.55;42.30;100375.16;7282063;19;152694;-60
2023/01/19 04:18:21;;;;;;;;;;;;;;;17.51;42.07;100374.09;7283121;19;153576;-59
2023/01/19 04:20:48;;;;;;;;;;;;;;;17.51;42.01;100368.50;7282195;19;152106;-60
2023/01/19 04:23:15;;;;;;;;;;;;;;;17.46;42.30;100369.41;7282604;19;153445;-59
2023/01/19 04:25:42;;;;;;;;;;;;;;;17.46;42.05;100368.56;7279567;19;154154;-60
2023/01/19 04:28:09;;;;;;;;;;;;;;;17.44;42.05;100368.06;7281309;19;152427;-61
2023/01/19 04:30:36;;;;;;;;;;;;;;;17.38;42.49;100372.88;7280764;19;152366;-59
2023/01/19 04:33:03;;;;;;;;;;;;;;;17.41;42.42;100380.66;7286877;19;152344;-59
2023/01/19 04:35:30;;;;;;;;;;;;;;;17.38;42.56;100372.88;7276138;19;151946;-60
2023/01/19 04:37:57;;;;;;;;;;;;;;;17.35;42.40;100374.31;7281172;19;153583;-59
2023/01/19 04:40:24;;;;;;;;;;;;;;;17.37;42.34;100370.38;7281106;19;152075;-61
2023/01/19 04:42:51;;;;;;;;;;;;;;;17.36;42.19;100366.75;7278971;19;152198;-59
2023/01/19 04:45:18;;;;;;;;;;;;;;;17.29;42.56;100369.09;7281395;19;153215;-59
2023/01/19 04:47:45;;;;;;;;;;;;;;;17.25;42.43;100368.88;7281318;19;152477;-59
2023/01/19 04:50:12;;;;;;;;;;;;;;;17.27;42.26;100365.78;7282100;19;152713;-60
2023/01/19 04:52:39;;;;;;;;;;;;;;;17.22;42.47;100366.66;7285067;19;152943;-59
2023/01/19 04:55:06;;;;;;;;;;;;;;;17.20;42.66;100373.69;7281835;19;154015;-59
2023/01/19 04:57:33;;;;;;;;;;;;;;;17.22;42.28;100371.41;7279915;19;153611;-58
2023/01/19 05:00:00;;;;;;;;;;;;;;;17.18;42.34;100357.25;7281664;19;152455;-59
2023/01/19 05:02:27;;;;;;;;;;;;;;;17.14;42.75;100360.94;7257681;19;156102;-59
2023/01/19 05:04:54;;;;;;;;;;;;;;;17.13;42.73;100359.25;7280814;19;153829;-59
2023/01/19 05:07:21;;;;;;;;;;;;;;;17.11;42.61;100358.75;7281201;19;154028;-58
2023/01/19 05:09:48;;;;;;;;;;;;;;;17.05;42.93;100355.19;7277813;19;153110;-59
2023/01/19 05:12:15;;;;;;;;;;;;;;;17.03;42.62;100349.09;7279624;19;153460;-59
2023/01/19 05:14:42;;;;;;;;;;;;;;;17.05;42.78;100355.19;7288794;19;152525;-59
2023/01/19 05:17:09;;;;;;;;;;;;;;;17.04;42.86;100356.31;7278222;19;154252;-60
2023/01/19 05:19:36;;;;;;;;;;;;;;;17.03;42.68;100359.44;7278306;19;152131;-60
2023/01/19 05:22:03;;;;;;;;;;;;;;;17.02;42.86;100358.59;7279369;19;153143;-60
2023/01/19 05:24:30;;;;;;;;;;;;;;;17.06;42.93;100359.66;7279378;19;153909;-58
2023/01/19 05:26:57;;;;;;;;;;;;;;;17.08;43.27;100356.56;7259940;19;155616;-59
2023/01/19 05:29:24;;;;;;;;;;;;;;;17.12;43.55;100366.00;7270919;19;153412;-59
2023/01/19 05:31:51;;;;;;;;;;;;;;;17.15;44.17;100369.03;7276254;19;152917;-60
2023/01/19 05:34:18;;;;;;;;;;;;;;;17.19;43.42;100370.06;7279829;19;152069;-59
2023/01/19 05:36:45;;;;;;;;;;;;;;;17.21;43.31;100370.63;7283184;19;152723;-59
2023/01/19 05:39:12;;;;;;;;;;;;;;;17.25;43.18;100366.09;7277863;19;151872;-59
2023/01/19 05:41:40;;;;;;;;;;;;;;;17.29;43.95;100357.94;7279956;19;153055;-59
2023/01/19 05:44:08;;;;;;;;;;;;;;;17.33;43.75;100359.81;7276069;19;154455;-59
2023/01/19 05:46:35;;;;;;;;;;;;;;;17.38;44.12;100358.94;7281239;19;152346;-59
2023/01/19 05:49:03;;;;;;;;;;;;;;;17.41;44.03;100361.09;7278639;19;152744;-59
2023/01/19 05:51:34;;;;;;;;;;;;;;;17.46;44.08;100358.25;7278596;19;152541;-59
2023/01/19 05:54:01;;;;;;;;;;;;;;;17.53;44.13;100357.88;7279139;19;153829;-59
2023/01/19 05:56:28;;;;;;;;;;;;;;;17.57;43.80;100361.72;7279536;19;153571;-59
2023/01/19 05:58:55;;;;;;;;;;;;;;;17.62;43.91;100356.91;7286878;19;154231;-59
2023/01/19 06:01:22;;;;;;;;;;;;;;;17.67;44.03;100358.81;7279156;19;153503;-59
2023/01/19 06:03:49;;;;;;;;;;;;;;;17.72;44.26;100359.53;7281660;19;153518;-59
2023/01/19 06:06:17;;;;;;;;;;;;;;;17.76;43.66;100352.19;7286181;19;152550;-62
2023/01/19 06:08:44;;;;;;;;;;;;;;;17.83;43.68;100360.22;7284190;19;153601;-59
2023/01/19 06:11:11;;;;;;;;;;;;;;;17.87;43.63;100355.66;7282201;19;153967;-58
2023/01/19 06:13:39;;;;;;;;;;;;;;;17.92;43.38;100355.59;7285500;19;151857;-59
2023/01/19 06:16:08;;;;;;;;;;;;;;;17.98;43.51;100356.34;7285924;19;153243;-59
2023/01/19 06:18:35;;;;;;;;;;;;;;;18.03;43.52;100357.09;7284147;19;153125;-59
2023/01/19 06:21:03;;;;;;;;;;;;;;;18.07;43.45;100355.31;7293783;19;153506;-59
2023/01/19 06:23:30;;;;;;;;;;;;;;;18.12;42.99;100351.63;7284818;19;154297;-59
2023/01/19 06:25:57;;;;;;;;;;;;;;;18.16;43.37;100345.09;7282499;19;152254;-60
2023/01/19 06:28:24;;;;;;;;;;;;;;;18.21;43.18;100344.19;7268361;19;152359;-59
2023/01/19 06:30:52;;;;;;;;;;;;;;;18.26;42.90;100343.25;7276909;19;153532;-59
2023/01/19 06:33:20;;;;;;;;;;;;;;;18.31;43.08;100357.94;7282793;19;152200;-59
2023/01/19 06:35:48;;;;;;;;;;;;;;;18.36;42.99;100351.44;7282152;19;153603;-60
2023/01/19 06:38:17;;;;;;;;;;;;;;;18.41;42.71;100363.34;7278161;19;153303;-60
2023/01/19 06:40:44;;;;;;;;;;;;;;;18.46;42.90;100354.88;7291532;19;153641;-60
2023/01/19 06:43:12;;;;;;;;;;;;;;;18.49;42.63;100353.41;7278141;19;152326;-60
2023/01/19 06:45:39;;;;;;;;;;;;;;;18.54;42.12;100365.38;7283984;19;152206;-60
2023/01/19 06:48:07;;;;;;;;;;;;;;;18.58;42.62;100358.00;7283764;19;153968;-60
2023/01/19 06:50:34;;;;;;;;;;;;;;;18.63;42.48;100357.91;7281024;19;153879;-60
2023/01/19 06:53:01;;;;;;;;;;;;;;;18.68;42.14;100362.59;7286088;19;153206;-60
2023/01/19 06:55:28;;;;;;;;;;;;;;;18.73;42.02;100376.47;7263978;19;153324;-60
2023/01/19 06:57:57;;;;;;;;;;;;;;;18.77;41.67;100371.09;7279042;19;153964;-60
2023/01/19 07:00:24;;;;;;;;;;;;;;;18.82;41.54;100380.22;7283865;19;151846;-59
2023/01/19 07:02:51;;;;;;;;;;;;;;;18.87;42.01;100376.47;7291532;19;153889;-60
2023/01/19 07:05:20;;;;;;;;;;;;;;;18.90;42.00;100379.47;7285820;19;154500;-60
2023/01/19 07:07:50;;;;;;;;;;;;;;;18.94;41.93;100382.50;7282553;19;152842;-60
2023/01/19 07:10:17;;;;;;;;;;;;;;;18.97;41.67;100388.31;7280162;19;154614;-60
2023/01/19 07:12:46;;;;;;;;;;;;;;;19.02;41.27;100391.00;7285184;19;152610;-60
2023/01/19 07:15:15;;;;;;;;;;;;;;;19.05;41.60;100387.56;7283426;19;152008;-60
2023/01/19 07:17:42;;;;;;;;;;;;;;;19.12;41.91;100383.53;7284330;19;153897;-61
2023/01/19 07:20:13;;;;;;;;;;;;;;;19.16;41.54;100398.56;7285706;19;152206;-60
2023/01/19 07:22:40;;;;;;;;;;;;;;;19.18;41.19;100399.91;7285531;19;152161;-60
2023/01/19 07:25:08;;;;;;;;;;;;;;;19.22;41.13;100397.28;7292521;19;153320;-60
2023/01/19 07:27:35;;;;;;;;;;;;;;;19.25;40.45;100396.69;7284913;19;152448;-62
2023/01/19 07:30:03;;;;;;;;;;;;;;;19.27;40.32;100402.78;7283581;19;154610;-60
2023/01/19 07:32:30;;;;;;;;;;;;;;;19.30;40.45;100396.59;7285987;19;152968;-60
2023/01/19 07:34:57;;;;;;;;;;;;;;;19.31;40.36;100395.41;7285873;19;152774;-60
2023/01/19 07:37:24;;;;;;;;;;;;;;;19.35;39.78;100402.06;7283830;19;155197;-60
2023/01/19 07:39:51;;;;;;;;;;;;;;;19.39;39.89;100400.31;7285012;19;152571;-61
2023/01/19 07:42:18;;;;;;;;;;;;;;;19.40;39.96;100407.53;7284515;19;153209;-60
2023/01/19 07:44:45;;;;;;;;;;;;;;;19.45;39.99;100404.66;7285181;19;153203;-60
2023/01/19 07:47:12;;;;;;;;;;;;;;;19.47;39.58;100408.00;7292643;19;152054;-60
2023/01/19 07:49:39;;;;;;;;;;;;;;;19.47;39.42;100408.81;7284167;19;152618;-60
2023/01/19 07:52:06;;;;;;;;;;;;;;;19.51;39.70;100406.22;7284767;19;152508;-60
2023/01/19 07:54:33;;;;;;;;;;;;;;;19.54;39.51;100409.22;7284620;19;152000;-60
2023/01/19 07:57:00;;;;;;;;;;;;;;;19.56;39.52;100411.69;7282008;19;153238;-60
2023/01/19 07:59:29;;;;;;;;;;;;;;;19.59;38.99;100413.88;7285163;19;153248;-60
2023/01/19 08:01:58;;;;;;;;;;;;;;;19.63;39.62;100411.25;7284348;19;155513;-60
2023/01/19 08:04:25;;;;;;;;;;;;;;;19.16;35.23;100409.75;7276964;19;154510;-59
2023/01/19 08:06:54;;;;;;;;;;;;;;;19.35;36.67;100418.88;7275535;19;152212;-60
2023/01/19 08:09:21;;;;;;;;;;;;;;;19.46;37.17;100423.97;7288763;19;153227;-60
2023/01/19 08:11:48;;;;;;;;;;;;;;;19.51;37.41;100420.22;7286809;19;151878;-59
2023/01/19 08:14:15;;;;;;;;;;;;;;;19.52;37.05;100421.88;7284926;19;153484;-59
2023/01/19 08:16:42;;;;;;;;;;;;;;;19.56;37.03;100419.28;7284495;19;153338;-59
2023/01/19 08:19:10;;;;;;;;;;;;;;;19.58;37.21;100415.00;7284170;19;152650;-59
2023/01/19 08:21:37;;;;;;;;;;;;;;;19.60;36.79;100415.53;7284232;19;153476;-58
2023/01/19 08:24:05;;;;;;;;;;;;;;;19.62;37.32;100421.66;7282616;19;152634;-58
2023/01/19 08:26:33;;;;;;;;;;;;;;;19.64;36.91;100415.72;7284111;19;152434;-58
2023/01/19 08:29:02;;;;;;;;;;;;;;;19.66;37.13;100416.25;7285324;19;153194;-58
2023/01/19 08:31:29;;;;;;;;;;;;;;;19.66;36.95;100425.50;7289704;19;153300;-60
2023/01/19 08:33:57;;;;;;;;;;;;;;;19.70;37.33;100432.13;7283796;19;154391;-59
2023/01/19 08:36:24;;;;;;;;;;;;;;;19.71;36.88;100439.38;7283581;19;154562;-59
2023/01/19 08:38:51;;;;;;;;;;;;;;;19.72;37.30;100441.03;7283911;19;154007;-59
2023/01/19 08:41:18;;;;;;;;;;;;;;;19.74;36.88;100438.75;7283767;19;152451;-59
2023/01/19 08:43:45;;;;;;;;;;;;;;;19.75;37.09;100437.63;7282236;19;152512;-60
2023/01/19 08:46:16;;;;;;;;;;;;;;;19.76;36.76;100436.44;7284869;19;152300;-59
2023/01/19 08:48:44;;;;;;;;;;;;;;;19.77;36.55;100446.50;7282065;19;152686;-59
2023/01/19 08:51:11;;;;;;;;;;;;;;;19.76;36.53;100444.84;7287699;19;154154;-59
2023/01/19 08:53:38;;;;;;;;;;;;;;;19.77;36.36;100446.50;7283791;19;153178;-59
2023/01/19 08:56:11;;;;;;;;;;;;;;;19.77;36.24;100445.69;7282381;19;153960;-59
2023/01/19 08:58:39;;;;;;;;;;;;;;;19.76;36.62;100450.47;7280699;19;152870;-59
2023/01/19 09:01:07;;;;;;;;;;;;;;;19.75;36.39;100448.81;7284231;19;153716;-59
2023/01/19 09:03:35;;;;;;;;;;;;;;;19.76;36.24;100446.84;7281084;19;152909;-59
2023/01/19 09:06:05;;;;;;;;;;;;;;;19.75;36.09;100443.22;7283402;19;152384;-59
2023/01/19 09:08:32;;;;;;;;;;;;;;;19.74;35.95;100440.72;7283236;19;153274;-58
2023/01/19 09:11:00;;;;;;;;;;;;;;;19.72;36.18;100438.22;7279457;19;152429;-59
2023/01/19 09:13:27;;;;;;;;;;;;;;;19.69;36.11;100440.84;7290015;19;152186;-59
2023/01/19 09:15:54;;;;;;;;;;;;;;;19.69;35.83;100441.66;7280369;19;153961;-59
2023/01/19 09:18:22;;;;;;;;;;;;;;;19.67;35.98;100441.13;7282975;19;151866;-59
2023/01/19 09:20:49;;;;;;;;;;;;;;;19.65;36.01;100451.84;7284213;19;152265;-59
2023/01/19 09:23:18;;;;;;;;;;;;;;;19.61;35.63;100452.78;7282745;19;154310;-59
2023/01/19 09:25:46;;;;;;;;;;;;;;;19.61;36.01;100452.78;7281524;19;151872;-59
2023/01/19 09:28:14;;;;;;;;;;;;;;;19.56;35.54;100453.75;7281205;19;152801;-60
2023/01/19 09:30:42;;;;;;;;;;;;;;;19.54;35.46;100454.03;7279339;19;153333;-60
2023/01/19 09:33:10;;;;;;;;;;;;;;;19.53;35.53;100457.97;7278832;19;153693;-59
2023/01/19 09:35:38;;;;;;;;;;;;;;;19.48;35.71;100458.13;7289418;19;153501;-59
2023/01/19 09:38:07;;;;;;;;;;;;;;;19.45;35.33;100458.72;7281802;19;152891;-59
2023/01/19 09:40:40;;;;;;;;;;;;;;;19.44;35.56;100464.66;7287186;19;153164;-59
2023/01/19 09:43:11;;;;;;;;;;;;;;;19.40;35.38;100463.56;7286923;19;152744;-58
2023/01/19 09:45:44;;;;;;;;;;;;;;;19.38;35.64;100460.25;7290049;19;153230;-59
2023/01/19 09:48:15;;;;;;;;;;;;;;;19.35;35.31;100460.91;7288445;19;151974;-59
2023/01/19 09:50:46;;;;;;;;;;;;;;;19.32;35.73;100467.09;7286607;19;153332;-59
2023/01/19 09:53:17;;;;;;;;;;;;;;;19.28;35.51;100463.28;7287010;19;152930;-59
2023/01/19 09:55:44;;;;;;;;;;;;;;;19.27;35.21;100467.22;7289350;19;153316;-59
2023/01/19 09:58:15;;;;;;;;;;;;;;;19.23;35.62;100466.19;7294173;19;155992;-59
2023/01/19 10:00:46;;;;;;;;;;;;;;;19.20;35.21;100464.84;7289614;19;154209;-59
2023/01/19 10:03:14;;;;;;;;;;;;;;;19.19;35.41;100467.94;7287896;19;153860;-59
2023/01/19 10:05:43;;;;;;;;;;;;;;;19.17;35.43;100481.44;7290278;19;153153;-59
2023/01/19 10:08:17;;;;;;;;;;;;;;;19.10;35.59;100476.25;7285516;19;152893;-59
2023/01/19 10:10:47;;;;;;;;;;;;;;;19.09;35.78;100481.00;7283688;19;153264;-59
2023/01/19 10:13:15;;;;;;;;;;;;;;;19.07;35.80;100480.50;7287059;19;152570;-61
2023/01/19 10:15:48;;;;;;;;;;;;;;;19.03;35.62;100484.22;7289071;19;152890;-59
2023/01/19 10:18:16;;;;;;;;;;;;;;;18.97;35.82;100480.69;7285438;19;152893;-59
2023/01/19 10:20:46;;;;;;;;;;;;;;;18.93;35.46;100482.44;7297086;19;152346;-60
2023/01/19 10:23:16;;;;;;;;;;;;;;;18.90;35.43;100483.06;7286381;19;154321;-60
2023/01/19 10:25:44;;;;;;;;;;;;;;;18.88;35.41;100490.09;7287505;19;152236;-60
2023/01/19 10:28:12;;;;;;;;;;;;;;;18.86;35.80;100493.22;7287398;19;152301;-59
2023/01/19 10:30:41;;;;;;;;;;;;;;;18.83;35.78;100490.19;7286028;19;153967;-59
2023/01/19 10:33:11;;;;;;;;;;;;;;;18.80;35.76;100497.25;7288768;19;151856;-59
2023/01/19 10:35:38;;;;;;;;;;;;;;;18.76;36.03;100496.19;7287568;19;153009;-60
2023/01/19 10:38:10;;;;;;;;;;;;;;;18.71;35.80;100493.50;7286404;19;154231;-66
2023/01/19 10:40:46;;;;;;;;;;;;;;;18.70;35.97;100499.41;7287813;19;151670;-59
2023/01/19 10:43:16;;;;;;;;;;;;;;;18.67;35.75;100486.84;7291728;19;152130;-60
2023/01/19 10:45:48;;;;;;;;;;;;;;;18.62;35.86;100489.75;7285581;19;151894;-58
2023/01/19 10:48:15;;;;;;;;;;;;;;;18.58;36.04;100486.72;7287719;19;152698;-64
2023/01/19 10:50:43;;;;;;;;;;;;;;;18.56;35.82;100486.22;7285360;19;153407;-59
2023/01/19 10:53:13;;;;;;;;;;;;;;;18.57;36.22;100482.28;7287203;19;152268;-59
2023/01/19 10:55:40;;;;;;;;;;;;;;;18.53;36.17;100489.59;7287802;19;152142;-59
2023/01/19 10:58:25;;;;;;;;;;;;;;;18.51;36.02;100486.25;7285774;19;153283;-59
2023/01/19 11:00:53;;;;;;;;;;;;;;;18.52;36.07;100481.50;7287033;19;152907;-59
2023/01/19 11:03:22;;;;;;;;;;;;;;;18.43;36.17;100475.78;7293053;19;154094;-60
2023/01/19 11:05:49;;;;;;;;;;;;;;;18.45;36.14;100478.25;7286308;19;152114;-59
2023/01/19 11:08:19;;;;;;;;;;;;;;;18.44;36.26;100485.00;7283691;19;154249;-59
2023/01/19 11:10:51;;;;;;;;;;;;;;;18.41;35.92;100480.84;7282767;19;153197;-59
2023/01/19 11:13:18;;;;;;;;;;;;;;;18.40;36.25;100472.75;7286341;19;152250;-61
2023/01/19 11:15:46;;;;;;;;;;;;;;;18.38;36.37;100478.66;7285673;19;152150;-59
2023/01/19 11:18:16;;;;;;;;;;;;;;;18.34;36.18;100466.44;7286205;19;153863;-59
2023/01/19 11:20:46;;;;;;;;;;;;;;;18.33;36.36;100472.31;7287856;19;151828;-58
2023/01/19 11:23:14;;;;;;;;;;;;;;;18.29;36.12;100465.66;7285624;19;152595;-59
2023/01/19 11:25:45;;;;;;;;;;;;;;;18.30;36.29;100467.34;7293258;19;152228;-59
2023/01/19 11:28:15;;;;;;;;;;;;;;;18.27;36.55;100465.13;7284402;19;152783;-59
2023/01/19 11:30:52;;;;;;;;;;;;;;;18.23;36.20;100468.53;7285372;19;153202;-59
2023/01/19 11:33:22;;;;;;;;;;;;;;;18.24;36.43;100463.78;7285102;19;151739;-59
2023/01/19 11:35:50;;;;;;;;;;;;;;;18.19;36.48;100467.50;7285769;19;153317;-59
2023/01/19 11:38:19;;;;;;;;;;;;;;;18.17;36.31;100466.13;7282986;19;154664;-59
2023/01/19 11:40:49;;;;;;;;;;;;;;;18.12;36.42;100472.66;7285948;19;152090;-59
2023/01/19 11:43:16;;;;;;;;;;;;;;;18.11;36.65;100479.38;7285568;19;153327;-59
2023/01/19 11:45:44;;;;;;;;;;;;;;;18.07;36.96;100469.09;7284895;19;153315;-60
2023/01/19 11:48:17;;;;;;;;;;;;;;;18.08;36.57;100468.78;7291579;19;152947;-59
2023/01/19 11:50:44;;;;;;;;;;;;;;;18.06;36.80;100467.44;7283326;19;153477;-59
2023/01/19 11:53:15;;;;;;;;;;;;;;;18.07;36.63;100472.75;7284930;19;152354;-59
2023/01/19 11:55:48;;;;;;;;;;;;;;;18.05;36.66;100472.19;7286189;19;152489;-59
2023/01/19 11:58:16;;;;;;;;;;;;;;;18.01;36.63;100471.16;7281363;19;154293;-59
2023/01/19 12:00:46;;;;;;;;;;;;;;;17.98;36.94;100468.97;7286152;19;152396;-59
2023/01/19 12:03:17;;;;;;;;;;;;;;;17.97;37.01;100481.28;7285711;19;154049;-59
2023/01/19 12:05:47;;;;;;;;;;;;;;;17.92;37.20;100478.56;7285741;19;153325;-59
2023/01/19 12:08:18;;;;;;;;;;;;;;;17.90;37.19;100471.63;7283573;19;152346;-59
2023/01/19 12:10:46;;;;;;;;;;;;;;;17.88;37.33;100466.31;7290363;19;153056;-59
2023/01/19 12:13:18;;;;;;;;;;;;;;;17.88;37.40;100463.53;7284130;19;151959;-59
2023/01/19 12:15:47;;;;;;;;;;;;;;;17.85;37.25;100454.91;7286771;19;152753;-58
2023/01/19 12:18:18;;;;;;;;;;;;;;;17.83;37.30;100459.97;7283794;19;154056;-59
2023/01/19 12:20:48;;;;;;;;;;;;;;;17.81;37.31;100453.88;7286314;19;151765;-59
2023/01/19 12:23:24;;;;;;;;;;;;;;;17.78;37.04;100450.53;7283313;19;153430;-59
2023/01/19 12:25:54;;;;;;;;;;;;;;;17.75;37.22;100442.75;7284317;19;153483;-59
2023/01/19 12:28:26;;;;;;;;;;;;;;;17.75;37.34;100439.97;7285320;19;152406;-59
2023/01/19 12:30:54;;;;;;;;;;;;;;;17.71;37.66;100440.88;7285563;19;152588;-59
2023/01/19 12:33:24;;;;;;;;;;;;;;;17.71;37.44;100440.88;7292125;19;155230;-63
2023/01/19 12:35:55;;;;;;;;;;;;;;;17.72;37.70;100440.56;7285255;19;152627;-59
2023/01/19 12:38:31;;;;;;;;;;;;;;;17.70;37.42;100445.63;7282342;19;153474;-59
2023/01/19 12:41:01;;;;;;;;;;;;;;;17.69;37.70;100446.75;7283669;19;151682;-58
2023/01/19 12:43:28;;;;;;;;;;;;;;;17.66;37.45;100446.53;7285125;19;152667;-59
2023/01/19 12:45:56;;;;;;;;;;;;;;;17.65;37.48;100433.69;7282025;19;154100;-60